Time;durP1;ratioP1;P1;durP2;ratioP2;P2;SDS_P1;SDS_P2;PMS_P1;PMS_P2;Temp;Humidity;BMP_temperature;BMP_pressure;BME280_temperature;BME280_humidity;BME280_pressure;Samples;Min_cycle;Max_cycle;Signal;HPM_P1;HPM_P2
2023/04/01 00:00:51;;;;;;;1.80;1.20;;;11.40;45.20;;;;;;4972539;28;20414;-72
2023/04/01 00:03:17;;;;;;;1.90;1.20;;;11.40;46.20;;;;;;4972469;28;20925;-72
2023/04/01 00:05:43;;;;;;;2.00;1.30;;;11.70;44.40;;;;;;4971180;28;20498;-71
2023/04/01 00:08:08;;;;;;;1.90;1.27;;;11.30;46.00;;;;;;4965001;28;20425;-71
2023/04/01 00:10:34;;;;;;;1.90;1.20;;;11.20;47.20;;;;;;4971085;28;20281;-72
2023/04/01 00:13:00;;;;;;;2.00;1.30;;;10.90;48.60;;;;;;4971757;28;20536;-71
2023/04/01 00:15:25;;;;;;;1.80;1.10;;;11.20;47.10;;;;;;4975581;28;20190;-73
2023/04/01 00:17:51;;;;;;;1.97;1.30;;;11.40;47.30;;;;;;4970840;28;20270;-71
2023/04/01 00:20:17;;;;;;;1.90;1.20;;;11.50;46.20;;;;;;4972207;28;20786;-72
2023/04/01 00:22:42;;;;;;;1.90;1.30;;;11.60;45.60;;;;;;4972577;28;20180;-72
2023/04/01 00:25:09;;;;;;;1.90;1.20;;;12.10;43.80;;;;;;4971706;28;20277;-75
2023/04/01 00:27:34;;;;;;;2.00;1.30;;;11.80;44.70;;;;;;4971521;28;20182;-72
2023/04/01 00:30:00;;;;;;;2.00;1.30;;;11.70;44.10;;;;;;4970315;28;20484;-71
2023/04/01 00:32:26;;;;;;;1.83;1.20;;;11.80;43.80;;;;;;4972169;28;20495;-71
2023/04/01 00:34:53;;;;;;;2.00;1.40;;;12.00;43.20;;;;;;4978030;28;20954;-71
2023/04/01 00:37:20;;;;;;;1.80;1.20;;;11.70;44.80;;;;;;4972373;28;20441;-71
2023/04/01 00:39:46;;;;;;;1.90;1.20;;;11.80;44.30;;;;;;4972850;28;20461;-71
2023/04/01 00:42:13;;;;;;;1.90;1.20;;;12.00;45.00;;;;;;4974478;28;20461;-71
2023/04/01 00:44:40;;;;;;;1.90;1.30;;;11.60;45.70;;;;;;4984744;28;20439;-72
2023/04/01 00:47:05;;;;;;;1.90;1.23;;;11.90;44.40;;;;;;4976616;28;20488;-71
2023/04/01 00:49:38;;;;;;;1.90;1.20;;;11.70;44.40;;;;;;4961509;28;20552;-71
2023/04/01 00:52:07;;;;;;;1.80;1.10;;;11.80;44.70;;;;;;4976755;28;20167;-71
2023/04/01 00:54:34;;;;;;;1.90;1.20;;;11.70;44.90;;;;;;4975472;28;20988;-71
2023/04/01 00:57:14;;;;;;;1.90;1.20;;;11.40;45.90;;;;;;4975744;28;20415;-72
2023/04/01 00:59:43;;;;;;;2.00;1.30;;;11.40;47.00;;;;;;4971776;28;20453;-72
2023/04/01 01:02:11;;;;;;;1.83;1.10;;;11.80;46.40;;;;;;4971896;28;20406;-71
2023/04/01 01:04:37;;;;;;;1.80;1.20;;;11.80;45.70;;;;;;4975878;28;20410;-74
2023/04/01 01:07:27;;;;;;;1.80;1.10;;;11.90;44.90;;;;;;4975932;28;20752;-70
2023/04/01 01:10:02;;;;;;;1.87;1.20;;;11.40;45.20;;;;;;4970243;28;20750;-70
2023/04/01 01:12:42;;;;;;;1.90;1.20;;;11.70;45.30;;;;;;4974306;28;20456;-74
2023/04/01 01:15:24;;;;;;;2.00;1.30;;;11.90;43.80;;;;;;4979139;28;20433;-72
2023/04/01 01:18:07;;;;;;;2.43;1.70;;;11.90;42.80;;;;;;4973248;28;20443;-71
2023/04/01 01:21:07;;;;;;;2.40;1.50;;;11.50;44.50;;;;;;4973293;28;20452;-70
2023/04/01 01:24:04;;;;;;;1.80;1.13;;;11.40;44.50;;;;;;4974543;28;20413;-70
2023/04/01 01:26:55;;;;;;;1.80;1.10;;;11.50;44.60;;;;;;4977197;28;20429;-72
2023/04/01 01:29:23;;;;;;;1.90;1.20;;;11.60;43.40;;;;;;4973186;28;20490;-72
2023/04/01 01:32:19;;;;;;;1.80;1.20;;;11.10;43.90;;;;;;4972739;28;21615;-71
2023/04/01 01:34:56;;;;;;;1.90;1.20;;;11.20;45.00;;;;;;4975010;28;20921;-71
2023/04/01 01:37:25;;;;;;;1.90;1.10;;;11.70;43.30;;;;;;4975357;28;20425;-74
2023/04/01 01:39:59;;;;;;;2.00;1.30;;;11.70;43.60;;;;;;4971544;28;20454;-71
2023/04/01 01:42:28;;;;;;;1.90;1.20;;;11.70;44.50;;;;;;4973437;28;20453;-71
2023/04/01 01:44:56;;;;;;;1.93;1.23;;;11.60;42.10;;;;;;4974493;28;20421;-74
2023/04/01 01:47:22;;;;;;;1.90;1.20;;;11.20;43.00;;;;;;4979489;28;20595;-72
2023/04/01 01:49:49;;;;;;;1.83;1.20;;;11.70;43.20;;;;;;4975688;28;20830;-71
2023/04/01 01:52:16;;;;;;;1.90;1.20;;;11.70;42.10;;;;;;4969735;28;20795;-75
2023/04/01 01:54:54;;;;;;;1.83;1.20;;;11.70;42.10;;;;;;4972715;28;20461;-71
2023/04/01 01:57:29;;;;;;;1.80;1.10;;;11.50;41.80;;;;;;4974984;28;20405;-71
2023/04/01 02:00:01;;;;;;;1.90;1.20;;;11.70;41.40;;;;;;4974770;28;20433;-71
2023/04/01 02:02:31;;;;;;;1.90;1.30;;;11.90;40.40;;;;;;4974660;28;20784;-71
2023/04/01 02:04:57;;;;;;;1.90;1.20;;;11.60;41.30;;;;;;4974786;28;20428;-71
2023/04/01 02:07:31;;;;;;;1.77;1.10;;;11.30;41.90;;;;;;4975081;28;20426;-71
2023/04/01 02:09:57;;;;;;;1.90;1.20;;;11.40;42.70;;;;;;4974816;28;20468;-72
2023/04/01 02:12:24;;;;;;;1.83;1.17;;;11.90;41.50;;;;;;4973861;28;20429;-71
2023/04/01 02:15:00;;;;;;;1.80;1.10;;;11.50;41.90;;;;;;4961798;28;20175;-71
2023/04/01 02:17:29;;;;;;;2.00;1.30;;;11.30;42.00;;;;;;4973963;28;21012;-71
2023/04/01 02:20:04;;;;;;;1.90;1.20;;;11.40;41.90;;;;;;4974892;28;20844;-74
2023/04/01 02:22:34;;;;;;;1.90;1.20;;;11.30;43.70;;;;;;4973666;28;20445;-76
2023/04/01 02:25:07;;;;;;;1.97;1.30;;;10.90;44.60;;;;;;4974787;28;20438;-74
2023/04/01 02:27:33;;;;;;;1.90;1.20;;;11.00;45.20;;;;;;4975096;28;20445;-72
2023/04/01 02:29:58;;;;;;;1.80;1.20;;;11.20;44.90;;;;;;4975079;28;20477;-72
2023/04/01 02:32:27;;;;;;;1.83;1.17;;;11.50;45.90;;;;;;4973280;28;20446;-72
2023/04/01 02:34:53;;;;;;;1.80;1.20;;;11.00;45.80;;;;;;4972026;28;20178;-72
2023/04/01 02:37:19;;;;;;;1.83;1.17;;;11.40;46.60;;;;;;4955916;28;20438;-75
2023/04/01 02:39:45;;;;;;;1.93;1.27;;;11.10;46.40;;;;;;4975972;28;20508;-72
2023/04/01 02:42:10;;;;;;;1.80;1.10;;;11.20;45.90;;;;;;4973643;28;20434;-72
2023/04/01 02:44:36;;;;;;;1.90;1.20;;;11.40;45.80;;;;;;4972927;28;20662;-72
2023/04/01 02:47:02;;;;;;;1.90;1.20;;;11.00;46.30;;;;;;4975947;28;20193;-73
2023/04/01 02:49:28;;;;;;;1.80;1.10;;;11.10;47.30;;;;;;4974042;28;20440;-75
2023/04/01 02:51:53;;;;;;;1.90;1.20;;;11.00;47.30;;;;;;4974031;28;20441;-72
2023/04/01 02:54:19;;;;;;;1.90;1.20;;;10.80;47.40;;;;;;4973251;28;20658;-72
2023/04/01 02:56:45;;;;;;;1.90;1.20;;;10.90;46.70;;;;;;4967890;28;20180;-72
2023/04/01 02:59:11;;;;;;;1.90;1.20;;;10.80;48.20;;;;;;4970035;28;20558;-72
2023/04/01 03:01:37;;;;;;;2.00;1.30;;;10.90;46.30;;;;;;4973954;28;20917;-72
2023/04/01 03:04:03;;;;;;;1.90;1.27;;;10.60;48.10;;;;;;4973614;28;20417;-73
2023/04/01 03:06:29;;;;;;;1.90;1.23;;;10.30;47.90;;;;;;4971398;28;20448;-72
2023/04/01 03:08:54;;;;;;;1.80;1.20;;;10.40;47.40;;;;;;4967460;28;20438;-73
2023/04/01 03:11:21;;;;;;;1.80;1.10;;;10.50;47.30;;;;;;4969672;28;20206;-72
2023/04/01 03:13:46;;;;;;;1.90;1.13;;;10.50;47.20;;;;;;4973689;28;20182;-73
2023/04/01 03:16:12;;;;;;;1.90;1.13;;;10.60;46.70;;;;;;4973131;28;20429;-72
2023/04/01 03:18:38;;;;;;;2.07;1.30;;;10.90;45.20;;;;;;4972723;28;20533;-72
2023/04/01 03:21:17;;;;;;;2.00;1.30;;;10.30;47.50;;;;;;4973518;28;20186;-72
2023/04/01 03:23:44;;;;;;;2.07;1.30;;;10.30;47.00;;;;;;4966511;28;20187;-72
2023/04/01 03:26:10;;;;;;;1.90;1.17;;;10.10;47.70;;;;;;4973236;28;20901;-72
2023/04/01 03:28:35;;;;;;;1.90;1.10;;;10.00;47.30;;;;;;4973437;28;20557;-75
2023/04/01 03:31:01;;;;;;;2.07;1.30;;;10.00;47.90;;;;;;4972845;28;20292;-73
2023/04/01 03:33:27;;;;;;;2.00;1.30;;;10.40;45.90;;;;;;4972098;28;20190;-72
2023/04/01 03:35:52;;;;;;;2.00;1.20;;;10.00;46.80;;;;;;4972996;28;20653;-72
2023/04/01 03:38:18;;;;;;;2.00;1.30;;;10.00;46.90;;;;;;4971662;28;20175;-77
2023/04/01 03:40:45;;;;;;;2.00;1.20;;;10.00;47.40;;;;;;4973279;28;20250;-72
2023/04/01 03:43:11;;;;;;;1.98;1.17;;;10.10;46.50;;;;;;4973029;28;20457;-72
2023/04/01 03:45:46;;;;;;;1.90;1.20;;;10.30;45.70;;;;;;4973954;28;20195;-72
2023/04/01 03:48:13;;;;;;;2.10;1.23;;;10.80;44.00;;;;;;4972527;28;20447;-72
2023/04/01 03:50:39;;;;;;;2.00;1.20;;;10.90;42.60;;;;;;4971224;28;20476;-72
2023/04/01 03:53:05;;;;;;;1.90;1.13;;;11.40;42.60;;;;;;4972509;28;20430;-72
2023/04/01 03:55:30;;;;;;;1.90;1.10;;;11.20;41.80;;;;;;4972812;28;20183;-75
2023/04/01 03:57:56;;;;;;;2.00;1.20;;;11.10;42.00;;;;;;4972206;28;20654;-72
2023/04/01 04:00:22;;;;;;;2.10;1.40;;;11.10;41.00;;;;;;4971227;28;20206;-75
2023/04/01 04:02:48;;;;;;;2.10;1.33;;;11.30;41.00;;;;;;4972277;28;20190;-71
2023/04/01 04:05:14;;;;;;;2.00;1.10;;;10.90;41.70;;;;;;4972299;28;20272;-72
2023/04/01 04:07:39;;;;;;;2.00;1.20;;;11.10;41.80;;;;;;4972886;28;20274;-72
2023/04/01 04:10:06;;;;;;;1.97;1.23;;;11.20;42.00;;;;;;4974215;28;20560;-72
2023/04/01 04:12:32;;;;;;;1.92;1.20;;;11.10;42.30;;;;;;4971895;28;20204;-72
2023/04/01 04:14:57;;;;;;;1.90;1.10;;;11.50;41.90;;;;;;4972750;28;20614;-72
2023/04/01 04:17:23;;;;;;;1.90;1.20;;;11.00;42.60;;;;;;4972255;28;20944;-72
2023/04/01 04:19:49;;;;;;;1.90;1.20;;;10.70;43.90;;;;;;4971569;28;20199;-73
2023/04/01 04:22:14;;;;;;;1.80;1.10;;;10.90;43.50;;;;;;4972655;28;20650;-75
2023/04/01 04:24:40;;;;;;;1.80;1.10;;;11.50;42.70;;;;;;4971774;28;20187;-72
2023/04/01 04:27:06;;;;;;;1.90;1.20;;;11.40;42.20;;;;;;4975996;28;20602;-72
2023/04/01 04:29:31;;;;;;;2.00;1.30;;;11.00;43.00;;;;;;4970312;28;20217;-72
2023/04/01 04:31:57;;;;;;;1.80;1.20;;;11.00;42.90;;;;;;4972190;28;20178;-72
2023/04/01 04:34:23;;;;;;;1.80;1.20;;;11.00;42.90;;;;;;4971764;28;20554;-74
2023/04/01 04:36:48;;;;;;;1.80;1.10;;;11.10;43.00;;;;;;4972087;28;20233;-72
2023/04/01 04:39:15;;;;;;;1.90;1.27;;;10.90;43.70;;;;;;4973581;28;20622;-72
2023/04/01 04:41:41;;;;;;;1.80;1.10;;;11.10;43.60;;;;;;4970360;28;20191;-75
2023/04/01 04:44:07;;;;;;;2.00;1.30;;;11.10;42.70;;;;;;4975150;28;20493;-75
2023/04/01 04:46:32;;;;;;;1.80;1.20;;;10.90;43.10;;;;;;4974664;28;20445;-70
2023/04/01 04:48:58;;;;;;;1.73;1.10;;;10.90;43.30;;;;;;4972513;28;20489;-72
2023/04/01 04:51:24;;;;;;;1.77;1.10;;;11.20;42.50;;;;;;4972365;28;20225;-72
2023/04/01 04:53:50;;;;;;;2.03;1.40;;;11.00;43.30;;;;;;4966459;28;20186;-72
2023/04/01 04:56:20;;;;;;;1.80;1.10;;;11.00;42.30;;;;;;4968835;28;20917;-72
2023/04/01 04:58:45;;;;;;;2.10;1.40;;;10.70;43.30;;;;;;4972299;28;20209;-76
2023/04/01 05:01:13;;;;;;;1.90;1.20;;;10.90;42.60;;;;;;4972002;28;20453;-74
2023/04/01 05:03:39;;;;;;;1.90;1.20;;;10.90;41.80;;;;;;4971368;28;20363;-71
2023/04/01 05:06:07;;;;;;;1.90;1.27;;;10.60;43.20;;;;;;4963201;28;20605;-71
2023/04/01 05:08:33;;;;;;;1.80;1.20;;;10.50;42.60;;;;;;4971158;28;20525;-71
2023/04/01 05:11:00;;;;;;;1.83;1.20;;;10.20;44.70;;;;;;4971863;28;20453;-72
2023/04/01 05:13:26;;;;;;;1.80;1.10;;;10.60;43.80;;;;;;4972053;28;20418;-75
2023/04/01 05:15:51;;;;;;;1.90;1.27;;;10.70;43.20;;;;;;4969731;28;20436;-72
2023/04/01 05:18:17;;;;;;;1.77;1.10;;;11.10;41.40;;;;;;4970638;28;20179;-72
2023/04/01 05:20:51;;;;;;;1.80;1.20;;;10.90;42.40;;;;;;4971495;28;20183;-71
2023/04/01 05:23:17;;;;;;;1.80;1.10;;;11.00;42.50;;;;;;4971591;28;20680;-72
2023/04/01 05:25:43;;;;;;;1.83;1.20;;;10.90;42.60;;;;;;4970764;28;20430;-72
2023/04/01 05:28:09;;;;;;;1.80;1.10;;;11.10;40.80;;;;;;4972447;28;20189;-72
2023/04/01 05:30:34;;;;;;;1.80;1.17;;;11.20;41.70;;;;;;4974864;28;20457;-72
2023/04/01 05:33:00;;;;;;;1.93;1.23;;;11.40;40.00;;;;;;4974585;28;20210;-74
2023/04/01 05:35:27;;;;;;;1.90;1.27;;;11.30;39.70;;;;;;4975429;28;20674;-73
2023/04/01 05:37:52;;;;;;;1.90;1.30;;;11.10;40.40;;;;;;4970799;28;20492;-72
2023/04/01 05:40:18;;;;;;;1.97;1.30;;;11.20;41.60;;;;;;4972878;28;20206;-72
2023/04/01 05:42:43;;;;;;;2.00;1.47;;;11.20;40.60;;;;;;4974252;28;20186;-72
2023/04/01 05:45:09;;;;;;;1.90;1.20;;;11.30;40.80;;;;;;4976715;28;20186;-72
2023/04/01 05:47:35;;;;;;;1.80;1.20;;;11.10;40.10;;;;;;4972687;28;20217;-72
2023/04/01 05:50:01;;;;;;;2.00;1.30;;;11.10;40.80;;;;;;4974886;28;20505;-73
2023/04/01 05:52:26;;;;;;;1.83;1.20;;;11.30;39.90;;;;;;4974919;28;20190;-72
2023/04/01 05:54:52;;;;;;;1.80;1.10;;;11.50;39.70;;;;;;4974161;28;20639;-72
2023/04/01 05:57:17;;;;;;;2.00;1.37;;;11.70;38.90;;;;;;4972347;28;20182;-72
2023/04/01 05:59:43;;;;;;;1.90;1.20;;;11.70;39.50;;;;;;4974082;28;20207;-72
2023/04/01 06:02:10;;;;;;;5.60;3.10;;;11.20;39.40;;;;;;4973723;28;20535;-73
2023/04/01 06:04:39;;;;;;;2.00;1.33;;;11.20;39.80;;;;;;4973633;28;20264;-72
2023/04/01 06:07:16;;;;;;;1.80;1.20;;;11.30;39.80;;;;;;4974562;28;20433;-72
2023/04/01 06:09:42;;;;;;;1.80;1.20;;;11.30;39.90;;;;;;4966784;28;20477;-72
2023/04/01 06:12:28;;;;;;;1.80;1.10;;;12.10;38.80;;;;;;4974495;28;20469;-72
2023/04/01 06:15:19;;;;;;;1.80;1.20;;;11.70;38.60;;;;;;4973453;28;20916;-72
2023/04/01 06:17:51;;;;;;;1.90;1.27;;;11.60;38.70;;;;;;4971826;28;20850;-75
2023/04/01 06:20:40;;;;;;;1.80;1.20;;;11.40;39.40;;;;;;4972538;28;20454;-72
2023/04/01 06:26:09;;;;;;;1.90;1.20;;;11.50;38.90;;;;;;5025102;23;20497;-67
2023/04/01 06:28:37;;;;;;;2.07;1.40;;;11.70;39.00;;;;;;5007658;28;20433;-68
2023/04/01 06:31:44;;;;;;;1.80;1.10;;;12.00;37.50;;;;;;5010766;28;20459;-68
2023/04/01 06:34:43;;;;;;;2.00;1.30;;;11.80;38.30;;;;;;5009709;28;20997;-68
2023/04/01 06:37:43;;;;;;;1.80;1.20;;;11.70;38.20;;;;;;5006553;28;20431;-67
2023/04/01 06:40:31;;;;;;;1.90;1.30;;;11.40;39.50;;;;;;5005856;28;20435;-68
2023/04/01 06:43:02;;;;;;;1.80;1.20;;;11.20;39.90;;;;;;5011844;28;20444;-67
2023/04/01 06:46:05;;;;;;;1.80;1.10;;;11.70;38.60;;;;;;5010107;28;20467;-67
2023/04/01 06:48:59;;;;;;;1.80;1.10;;;11.60;38.90;;;;;;5012202;28;20469;-73
2023/04/01 06:51:41;;;;;;;1.90;1.30;;;11.60;39.20;;;;;;5008179;28;20530;-72
2023/04/01 06:54:13;;;;;;;1.80;1.20;;;11.90;37.90;;;;;;5011021;28;20765;-72
2023/04/01 06:56:43;;;;;;;1.90;1.20;;;12.00;37.80;;;;;;5009135;28;20429;-73
2023/04/01 06:59:15;;;;;;;1.83;1.20;;;11.70;38.50;;;;;;5009694;28;20415;-70
2023/04/01 07:01:45;;;;;;;1.90;1.30;;;11.60;38.20;;;;;;5008932;28;20544;-69
2023/04/01 07:04:35;;;;;;;1.93;1.30;;;11.60;38.30;;;;;;5011494;28;20466;-68
2023/04/01 07:07:24;;;;;;;1.90;1.30;;;11.80;38.00;;;;;;5006570;28;20455;-68
2023/04/01 07:09:53;;;;;;;2.00;1.40;;;12.00;38.40;;;;;;5002370;28;20486;-68
2023/04/01 07:12:31;;;;;;;1.80;1.20;;;12.30;37.60;;;;;;5009433;28;20495;-68
2023/04/01 07:15:00;;;;;;;1.93;1.30;;;12.10;37.60;;;;;;5006979;28;20456;-68
2023/04/01 07:17:31;;;;;;;2.00;1.30;;;12.00;38.20;;;;;;5007009;28;20444;-68
2023/04/01 07:20:19;;;;;;;1.80;1.20;;;12.40;37.20;;;;;;5008270;28;20444;-67
2023/04/01 07:22:48;;;;;;;1.90;1.20;;;12.20;37.20;;;;;;5008528;28;20433;-67
2023/04/01 07:25:15;;;;;;;1.90;1.30;;;12.50;37.00;;;;;;5009054;28;20557;-67
2023/04/01 07:27:42;;;;;;;1.90;1.20;;;12.40;38.10;;;;;;5008888;28;20444;-68
2023/04/01 07:30:15;;;;;;;1.90;1.30;;;12.20;37.70;;;;;;5010119;28;20457;-67
2023/04/01 07:32:50;;;;;;;1.90;1.20;;;12.10;37.40;;;;;;5010123;28;20436;-68
2023/04/01 07:35:20;;;;;;;1.80;1.10;;;12.30;37.30;;;;;;5011325;28;20499;-68
2023/04/01 07:37:59;;;;;;;1.80;1.20;;;12.40;37.00;;;;;;5009675;28;20445;-67
2023/04/01 07:40:32;;;;;;;1.90;1.20;;;12.00;37.90;;;;;;5009688;28;20432;-70
2023/04/01 07:43:22;;;;;;;1.80;1.20;;;12.00;38.20;;;;;;5003932;28;20892;-68
2023/04/01 07:46:14;;;;;;;2.00;1.30;;;12.10;37.40;;;;;;5010004;28;20433;-67
2023/04/01 07:48:58;;;;;;;1.80;1.10;;;12.40;37.20;;;;;;5009237;28;20947;-68
2023/04/01 07:52:12;;;;;;;1.77;1.10;;;12.10;37.30;;;;;;5006744;28;20466;-67
2023/04/01 07:54:51;;;;;;;1.80;1.10;;;12.10;37.40;;;;;;4998432;28;21024;-67
2023/04/01 07:57:27;;;;;;;1.80;1.20;;;12.20;36.60;;;;;;5008257;28;20437;-71
2023/04/01 08:00:01;;;;;;;1.80;1.20;;;12.60;34.80;;;;;;4999004;28;20446;-70
2023/04/01 08:03:04;;;;;;;1.80;1.10;;;12.20;36.40;;;;;;5006032;28;20534;-70
2023/04/01 08:05:45;;;;;;;1.90;1.20;;;12.00;37.50;;;;;;5006870;28;20483;-68
2023/04/01 08:08:25;;;;;;;1.87;1.20;;;12.10;36.50;;;;;;5009407;28;20551;-66
2023/04/01 08:10:50;;;;;;;1.90;1.20;;;12.00;37.20;;;;;;5007862;28;20462;-68
2023/04/01 08:13:21;;;;;;;1.90;1.20;;;12.50;36.10;;;;;;5009578;28;20508;-68
2023/04/01 08:16:27;;;;;;;1.70;1.00;;;12.30;35.90;;;;;;5010516;28;20233;-68
2023/04/01 08:18:58;;;;;;;1.80;1.20;;;12.10;36.60;;;;;;5009122;28;20434;-69
2023/04/01 08:21:32;;;;;;;1.90;1.30;;;12.60;35.40;;;;;;5007723;28;20877;-67
2023/04/01 08:24:06;;;;;;;3.30;1.60;;;12.90;35.10;;;;;;5007758;28;20472;-68
2023/04/01 08:26:41;;;;;;;1.70;1.10;;;12.60;36.60;;;;;;5010116;28;20455;-68
2023/04/01 08:29:18;;;;;;;1.77;1.10;;;12.80;35.90;;;;;;5006091;28;20515;-68
2023/04/01 08:31:59;;;;;;;1.80;1.10;;;12.30;37.60;;;;;;5006692;28;20461;-65
2023/04/01 08:34:30;;;;;;;1.80;1.30;;;11.90;37.70;;;;;;5006805;28;20449;-65
2023/04/01 08:37:07;;;;;;;1.80;1.10;;;11.70;40.40;;;;;;5010149;28;20502;-65
2023/04/01 08:40:12;;;;;;;1.73;1.10;;;12.40;36.80;;;;;;5008276;28;20436;-68
2023/04/01 08:42:40;;;;;;;2.00;1.30;;;12.30;37.20;;;;;;4942978;28;20485;-68
2023/04/01 08:45:24;;;;;;;1.70;1.10;;;13.00;34.50;;;;;;5005601;28;21102;-68
2023/04/01 08:48:08;;;;;;;1.83;1.20;;;12.90;35.10;;;;;;5010949;28;20415;-68
2023/04/01 08:50:58;;;;;;;1.90;1.20;;;12.50;36.50;;;;;;5007569;28;20464;-72
2023/04/01 08:53:44;;;;;;;1.80;1.10;;;12.30;36.60;;;;;;5008090;28;20440;-67
2023/04/01 08:56:10;;;;;;;1.80;1.10;;;12.00;37.80;;;;;;5007973;28;20436;-67
2023/04/01 08:58:50;;;;;;;1.80;1.20;;;12.50;36.20;;;;;;5008461;28;20434;-68
2023/04/01 09:01:45;;;;;;;1.80;1.10;;;12.20;36.30;;;;;;5009045;28;20189;-67
2023/04/01 09:04:35;;;;;;;1.80;1.10;;;12.40;36.50;;;;;;5010279;28;20501;-68
2023/04/01 09:07:39;;;;;;;1.80;1.20;;;13.00;35.10;;;;;;5010065;28;20438;-68
2023/04/01 09:10:33;;;;;;;1.90;1.20;;;12.60;37.00;;;;;;5009823;28;20453;-68
2023/04/01 09:12:59;;;;;;;1.80;1.20;;;12.60;38.80;;;;;;5011078;28;20434;-68
2023/04/01 09:15:52;;;;;;;1.80;1.20;;;12.20;39.50;;;;;;5012268;28;20457;-68
2023/04/01 09:18:40;;;;;;;1.90;1.20;;;12.40;39.40;;;;;;5014842;28;20411;-68
2023/04/01 09:21:59;;;;;;;2.17;1.47;;;12.20;41.90;;;;;;5010723;28;20440;-68
2023/04/01 09:25:05;;;;;;;1.90;1.30;;;12.20;41.00;;;;;;4959762;28;20490;-68
2023/04/01 09:27:45;;;;;;;1.80;1.10;;;11.60;40.90;;;;;;4946278;28;20451;-67
2023/04/01 09:30:34;;;;;;;1.80;1.17;;;11.80;41.70;;;;;;4957219;28;21021;-67
2023/04/01 09:33:23;;;;;;;1.90;1.30;;;12.00;42.30;;;;;;4958499;28;20475;-67
2023/04/01 09:36:15;;;;;;;1.80;1.17;;;11.80;41.50;;;;;;4952630;29;20862;-67
2023/04/01 09:38:57;;;;;;;1.90;1.20;;;12.20;42.00;;;;;;4953018;29;21020;-67
2023/04/01 09:41:29;;;;;;;1.70;1.10;;;12.60;41.60;;;;;;4953827;29;20523;-67
2023/04/01 09:44:20;;;;;;;1.80;1.20;;;12.60;41.00;;;;;;4953120;29;20922;-68
2023/04/01 09:47:43;;;;;;;1.80;1.20;;;12.30;43.00;;;;;;4952704;29;20451;-68
2023/04/01 09:50:47;;;;;;;1.90;1.20;;;12.60;41.50;;;;;;4877963;29;20473;-68
2023/04/01 09:53:21;;;;;;;1.83;1.20;;;13.10;41.70;;;;;;4859232;29;20779;-67
2023/04/01 09:56:12;;;;;;;1.80;1.13;;;12.90;39.80;;;;;;4859057;29;20424;-67
2023/04/01 09:58:38;;;;;;;1.87;1.23;;;12.60;40.60;;;;;;4877095;29;20963;-68
2023/04/01 10:01:31;;;;;;;1.80;1.20;;;12.60;41.50;;;;;;4914834;29;20432;-67
2023/04/01 10:04:34;;;;;;;1.90;1.27;;;12.60;41.90;;;;;;4914707;29;20315;-67
2023/04/01 10:07:24;;;;;;;1.80;1.20;;;13.20;39.60;;;;;;4914503;29;20584;-68
2023/04/01 10:10:17;;;;;;;1.80;1.20;;;12.70;40.90;;;;;;4907970;29;20551;-68
2023/04/01 10:12:51;;;;;;;1.90;1.30;;;13.50;40.50;;;;;;4911123;29;20447;-66
2023/04/01 10:15:25;;;;;;;1.80;1.10;;;13.40;40.70;;;;;;4914607;29;20441;-67
2023/04/01 10:18:15;;;;;;;1.97;1.30;;;13.00;41.90;;;;;;4914846;29;20441;-67
2023/04/01 10:21:12;;;;;;;2.00;1.40;;;12.60;41.90;;;;;;4953937;28;20427;-67
2023/04/01 10:24:01;;;;;;;1.80;1.30;;;11.90;45.90;;;;;;5009611;28;20482;-67
2023/04/01 10:26:55;;;;;;;1.90;1.30;;;12.30;44.00;;;;;;5013432;28;20431;-67
2023/04/01 10:29:49;;;;;;;1.80;1.20;;;12.00;44.10;;;;;;4978272;28;20997;-67
2023/04/01 10:32:32;;;;;;;1.87;1.20;;;11.70;45.30;;;;;;5012973;28;20410;-67
2023/04/01 10:35:19;;;;;;;1.93;1.30;;;11.90;45.20;;;;;;5010039;28;20440;-67
2023/04/01 10:38:03;;;;;;;1.90;1.20;;;12.30;43.90;;;;;;5005819;28;20527;-67
2023/04/01 10:41:12;;;;;;;1.87;1.20;;;12.60;42.10;;;;;;5013210;28;20609;-67
2023/04/01 10:44:08;;;;;;;1.80;1.20;;;12.70;40.70;;;;;;5012187;28;20538;-67
2023/04/01 10:47:11;;;;;;;3.07;1.30;;;13.00;41.70;;;;;;5012176;28;20915;-67
2023/04/01 10:49:48;;;;;;;1.77;1.10;;;12.80;40.90;;;;;;5011858;28;20997;-67
2023/04/01 10:52:23;;;;;;;1.80;1.20;;;12.30;42.10;;;;;;5013118;28;20475;-67
2023/04/01 10:55:19;;;;;;;1.77;1.10;;;12.20;41.90;;;;;;5010895;28;20446;-67
2023/04/01 10:57:51;;;;;;;1.80;1.20;;;12.30;42.50;;;;;;4993320;28;20394;-67
2023/04/01 11:00:23;;;;;;;1.87;1.20;;;12.40;42.60;;;;;;4975979;28;20614;-67
2023/04/01 11:03:21;;;;;;;1.90;1.30;;;13.10;41.20;;;;;;4993150;28;20393;-67
2023/04/01 11:06:05;;;;;;;1.90;1.20;;;12.60;40.60;;;;;;5011918;28;20430;-67
2023/04/01 11:08:52;;;;;;;1.80;1.10;;;12.10;43.00;;;;;;5012827;28;20406;-67
2023/04/01 11:11:42;;;;;;;1.90;1.30;;;12.30;44.00;;;;;;5012585;28;20437;-67
2023/04/01 11:14:29;;;;;;;1.70;1.17;;;12.90;42.00;;;;;;5011547;28;20997;-67
2023/04/01 11:17:13;;;;;;;1.80;1.20;;;13.40;40.50;;;;;;5008117;28;20446;-67
2023/04/01 11:20:04;;;;;;;2.00;1.40;;;13.50;38.70;;;;;;5012617;28;20403;-67
2023/04/01 11:22:41;;;;;;;10.70;1.50;;;13.00;40.90;;;;;;5009855;28;20440;-67
2023/04/01 11:25:44;;;;;;;1.90;1.30;;;13.10;41.50;;;;;;5010013;28;20545;-67
2023/04/01 11:28:35;;;;;;;2.00;1.37;;;12.90;42.10;;;;;;5008323;28;20423;-67
2023/04/01 11:31:18;;;;;;;2.00;1.30;;;13.30;42.90;;;;;;5002417;28;20909;-67
2023/04/01 11:33:49;;;;;;;1.90;1.27;;;13.40;41.90;;;;;;5004158;28;20428;-67
2023/04/01 11:36:21;;;;;;;1.87;1.20;;;13.60;41.20;;;;;;5011978;28;20433;-67
2023/04/01 11:39:01;;;;;;;1.90;1.23;;;13.80;42.60;;;;;;5011886;28;20404;-67
2023/04/01 11:41:49;;;;;;;1.97;1.33;;;13.40;41.90;;;;;;5011077;28;20438;-67
2023/04/01 11:44:18;;;;;;;2.00;1.40;;;13.60;41.30;;;;;;5006260;28;20505;-67
2023/04/01 11:47:11;;;;;;;1.83;1.23;;;13.30;43.00;;;;;;4999362;28;20513;-67
2023/04/01 11:49:37;;;;;;;2.00;1.40;;;13.40;41.30;;;;;;5002097;28;20466;-67
2023/04/01 11:52:05;;;;;;;2.00;1.37;;;13.50;40.60;;;;;;5005061;28;20475;-67
2023/04/01 11:54:50;;;;;;;1.80;1.10;;;13.30;39.80;;;;;;5006171;28;20243;-67
2023/04/01 11:58:11;;;;;;;1.90;1.20;;;13.60;39.30;;;;;;5007720;28;20496;-67
2023/04/01 12:01:15;;;;;;;1.90;1.20;;;13.80;39.30;;;;;;4949079;28;20439;-67
2023/04/01 12:04:02;;;;;;;1.90;1.20;;;13.10;41.70;;;;;;4988467;28;21084;-67
2023/04/01 12:06:45;;;;;;;2.00;1.30;;;13.40;41.70;;;;;;5005839;28;20445;-67
2023/04/01 12:09:14;;;;;;;1.90;1.30;;;13.80;39.80;;;;;;5007479;28;21088;-67
2023/04/01 12:12:12;;;;;;;1.80;1.20;;;14.00;38.40;;;;;;5010601;28;20460;-67
2023/04/01 12:15:03;;;;;;;1.90;1.20;;;13.30;41.00;;;;;;5005543;28;20604;-67
2023/04/01 12:17:47;;;;;;;1.80;1.20;;;13.30;42.10;;;;;;5005468;28;20439;-67
2023/04/01 12:20:53;;;;;;;2.00;1.40;;;13.20;44.00;;;;;;5006940;28;20935;-67
2023/04/01 12:23:30;;;;;;;2.00;1.30;;;13.60;42.30;;;;;;4945322;28;20437;-67
2023/04/01 12:25:55;;;;;;;2.00;1.30;;;13.40;43.90;;;;;;4944214;28;20446;-67
2023/04/01 12:28:56;;;;;;;1.80;1.20;;;13.90;40.80;;;;;;4947523;28;20446;-67
2023/04/01 12:31:37;;;;;;;1.90;1.20;;;13.50;43.10;;;;;;4898345;29;20219;-67
2023/04/01 12:34:31;;;;;;;1.93;1.33;;;13.30;44.30;;;;;;4899908;29;20461;-67
2023/04/01 12:37:12;;;;;;;1.90;1.30;;;13.40;43.70;;;;;;4899168;29;20441;-67
2023/04/01 12:40:05;;;;;;;1.80;1.20;;;13.60;43.30;;;;;;5010670;23;20484;-67
2023/04/01 12:42:44;;;;;;;1.90;1.30;;;13.70;42.50;;;;;;5034914;28;20480;-67
2023/04/01 12:45:30;;;;;;;1.90;1.23;;;13.60;43.40;;;;;;5035849;28;20914;-66
2023/04/01 12:48:30;;;;;;;1.80;1.10;;;13.20;43.10;;;;;;5033252;28;20925;-67
2023/04/01 12:51:11;;;;;;;2.00;1.40;;;13.20;43.30;;;;;;5012290;28;20529;-66
2023/04/01 12:53:58;;;;;;;1.90;1.20;;;13.20;42.60;;;;;;5012914;28;20454;-67
2023/04/01 12:56:31;;;;;;;1.90;1.30;;;13.20;41.50;;;;;;5013437;28;20440;-66
2023/04/01 12:59:11;;;;;;;1.90;1.30;;;13.30;43.00;;;;;;5011207;28;21921;-67
2023/04/01 13:01:51;;;;;;;1.90;1.20;;;13.40;42.00;;;;;;5013404;28;21027;-67
2023/04/01 13:04:32;;;;;;;1.90;1.20;;;13.60;41.50;;;;;;5014639;28;20428;-68
2023/04/01 13:07:22;;;;;;;1.90;1.30;;;13.50;40.20;;;;;;5011782;28;20791;-66
2023/04/01 13:10:31;;;;;;;1.90;1.37;;;14.10;39.30;;;;;;5008375;28;20734;-66
2023/04/01 13:13:44;;;;;;;2.00;1.40;;;14.10;38.00;;;;;;5011883;28;20470;-70
2023/04/01 13:16:27;;;;;;;2.00;1.30;;;14.20;38.70;;;;;;5011807;28;20483;-66
2023/04/01 13:18:58;;;;;;;1.90;1.30;;;14.60;36.50;;;;;;5013576;28;20871;-67
2023/04/01 13:21:40;;;;;;;1.90;1.30;;;14.50;36.50;;;;;;5015060;28;20428;-67
2023/04/01 13:24:39;;;;;;;2.00;1.30;;;14.50;34.60;;;;;;5015264;28;20431;-66
2023/04/01 13:27:26;;;;;;;1.90;1.20;;;14.70;36.70;;;;;;5010530;28;20948;-67
2023/04/01 13:30:24;;;;;;;1.97;1.30;;;15.20;33.00;;;;;;5014207;28;20459;-66
2023/04/01 13:32:55;;;;;;;1.80;1.10;;;14.80;32.70;;;;;;5008354;28;20835;-67
2023/04/01 13:35:45;;;;;;;1.80;1.20;;;14.70;35.90;;;;;;5013755;28;20927;-69
2023/04/01 13:38:29;;;;;;;1.77;1.10;;;14.20;35.40;;;;;;5014197;28;20485;-67
2023/04/01 13:41:47;;;;;;;1.87;1.20;;;14.10;36.20;;;;;;5012811;28;20814;-66